KLWBKOKV

Guest
Details From KLWB - Greenbrier Valley
To KOKV - Winchester Rgnl
Flight Number -
Tags Generated
Created
Modified
Stats Distance 132 nm / 244 km
Max Altitude 0 ft / 0 m
Waypoints 2
Social Downloads 1
Likes 0
Share VATSIM

Download

Looking for another format? Having issues loading an existing format? Contact us
Advertisement - Login to hide

Notes

Generated

Route

KLWB KOKV

ID Type Via Altitude Latitude Longitude Leg Dist Tot Dist Heading (true) Name
O KLWB APT - 0 ft / 0 m 37.85046˚ -80.40649˚ - 0 nm - -
O KOKV APT - 0 ft / 0 m 39.14875˚ -78.15146˚ 131 nm 131 nm 53° / 54° -

Altitude Profile

Advertisement - Login to hide

KLWB

Details ICAO KLWB (LWB)
Name GREENBRIER VALLEY
Region United States
Timezone America/New_York (UTC-5.0)
Stats Elevation 2,302 ft / 702 m (AMSL)
Location 37.858307° -80.399482°
Runways 1
Magnetic Variation 8.515° W

METAR

KLWB 180515Z AUTO 00000KT 7SM OVC014 02/01 A3012 RMK AO2 T00160010

Decode

TAF

TAF KLWB 172320Z 1800/1824 01004KT P6SM -DZ OVC045 FM180300 00000KT P6SM BKN030 FM180700 27004KT P6SM BKN040 FM181200 26004KT P6SM BKN025

Decode

Departure Runways

ID Width Length Bearing (true) Bearing (mag) Surface Threshold Offset Overrun Length
04 151 ft / 46 m 7,007 ft / 2,136 m 35.18° 43.69° Asphalt 0 ft / 0 m 0 ft / 0 m
22 151 ft / 46 m 7,007 ft / 2,136 m 215.19° 223.70° Asphalt 0 ft / 0 m 0 ft / 0 m

KOKV

Details ICAO KOKV
Name WINCHESTER RGNL
Region United States
Timezone America/New_York (UTC-5.0)
Stats Elevation 727 ft / 222 m (AMSL)
Location 39.143527° -78.144455°
Runways 1
Magnetic Variation 10.215° W

METAR

KOKV 180535Z AUTO 00000KT 10SM OVC050 03/01 A3011 RMK AO2

Decode

TAF

Not found

Destination Runways

ID Width Length Bearing (true) Bearing (mag) Surface Threshold Offset Overrun Length
14 98 ft / 30 m 5,500 ft / 1,677 m 133.85° 144.07° Asphalt 171 ft / 52 m 0 ft / 0 m
32 98 ft / 30 m 5,500 ft / 1,677 m 313.86° 324.08° Asphalt 177 ft / 54 m 0 ft / 0 m

Approach Navaids

Runway Type Ident Frequency Range Bearing (true) Bearing (mag) Slope Elevation
32 Localiser ITZX 109.55 MHz 18 nm / 33 km 313.87° 324.08° - 727 ft / 222 m (AMSL)
32 Glidescope ITZX 109.55 MHz 10 nm / 19 km 313.85° 324.07° 3.00° 698 ft / 213 m (AMSL)
32 DME ITZX 109.55 MHz 18 nm / 33 km - - - 727 ft / 222 m (AMSL)